LFSN/ENC METAR and TAF weather

Enter ICAO airport designator
Station Type Date Time Source
LFSN METAR 2022/06/25 23:00 UTC NOAA

LFSN 252300Z AUTO 13003KT 090V150 CAVOK 17/15 Q1014


Station Type Date Time Source
LFSN Decoded METAR 2022/06/25 23:00 UTC NOAA

Nancy / Essey, France (LFSN) 48-41N 006-13E 217M
Jun 25, 2022 - 07:00 PM EDT / 2022.06.25 2300 UTC
Wind: from the SE (130 degrees) at 3 MPH (3 KT) (direction variable):0
Visibility: greater than 7 mile(s):0
Temperature: 62 F (17 C)
Dew Point: 59 F (15 C)
Relative Humidity: 88%
Pressure (altimeter): 29.94 in. Hg (1014 hPa)
ob: LFSN 252300Z AUTO 13003KT 090V150 CAVOK 17/15 Q1014
cycle: 23

Station Type Date Time Source
LFSN TAF 2012/03/14 16:58 UTC NOAA

TAF LFSN 141600Z 1416/1512 CNL

Example: see airport list